CheckWX is a tool to help pilots better visualize weather data.  It is not intended as a substitute for an official pre-flight weather briefing.

02:23:59 UTC

11R METAR
Brenham Municipal Airport
Brenham, Texas, USA
Current

29 mins ago

K11R 160155Z AUTO 17007KT 10SM SCT080 31/25 A2990 RMK AO2 T03100245
Observed
Jul-16 @ 01:55 UTC
Wind
  • 170° at 7 KTS
Visibility
10 SM
Flight Rules
VFR
Cloud Levels
  • Scattered at 8,000' AGL
Temperature
31°C / 88°F
Dewpoint
25°C / 77°F
Heat Index
38°C / 100°F
Humidity
70%
Altimeter
29.9" Hg
Pressure
1012.52 hPa
Previous

49 mins ago

K11R 160135Z AUTO 16005KT 10SM SCT050 BKN065 BKN080 30/25 A2990 RMK AO2 T03020250
Observed
Jul-16 @ 01:35 UTC
Wind
  • 160° at 5 KTS
Visibility
10 SM
Flight Rules
VFR
Cloud Levels
  • Scattered at 5,000' AGL
  • Broken at 6,500' AGL
  • Broken at 8,000' AGL
Temperature
30°C / 86°F
Dewpoint
25°C / 77°F
Heat Index
36°C / 97°F
Humidity
75%
Altimeter
29.9" Hg
Pressure
1012.52 hPa
Previous

1 hour ago

K11R 160115Z AUTO 06004KT 10SM OVC050 31/26 A2990 RMK AO2 T03060257
Observed
Jul-16 @ 01:15 UTC
Wind
  • 060° at 4 KTS
Visibility
10 SM
Flight Rules
VFR
Cloud Levels
  • Overcast at 5,000' AGL
Temperature
31°C / 88°F
Dewpoint
26°C / 79°F
Heat Index
39°C / 103°F
Humidity
75%
Altimeter
29.9" Hg
Pressure
1012.52 hPa